Mesopotamia, Ohio
Current Conditions -  °F | °C
As of 10:51 PM on Friday 24 Oct 2014 (Local Time) from KYNG Reporting Station
Overcast Overcast  
Wind Chill: 49°   Ceiling: 4500
Heat Index: 49°   Visibility: 10mi
Dew Point: 41°   Wind: 0mph
Humidity: 74%   Direction: NA
Pressure: 29.99"   Gusts: NA
Location:  41.46°N, 80.96°W
Report Text: KYNG 250251Z 00000KT 10SM OVC045 09/05 A2999 RMK AO2 SLP159 BINOVC T00940050 58002 $
Loading
Personal Weather Stations






























Interactive Weather Map
Tropical Storm Tracking
New forecast layout! Learn more

10-Day Weather Forecast

Advertisements
Track Severe Weather on mobile